Sea Cloud II — 9HUE6 — position and weather

sailwx.info

Track history (hours):
 
Tides and Currents Weather Stations Pressure Air Temp Water Temp Dewpoint Dewpoint Depression Visibility Wind Speed Wind Dir Waves Ship Positions

Sea Cloud II

Ship's website: http://www.seacloud.com/en/the-ships/sea-cloud-ii.html

Last reported at 2018-May-23 09:38 UTC. Time now 2018-May-23 10:51 UTC.
Position N 38°43' W 009°07'.

Length 117 m; draft 6 m.

Type: Passenger vessel. MMSI: 248953000.

Date/timePositionNaut miles runAvg speedWind from/ knotsBaromVisibWave heightAir tempDewpointWater temp
2018-May-23 09:38N 38°43' W 009°07'0 0.0
2018-May-23 06:54N 38°43' W 009°07'2 3.8
2018-May-23 06:30N 38°42' W 009°09'5 9.8
2018-May-23 06:00N 38°41' W 009°15'510.3
2018-May-23 05:30N 38°39' W 009°21'3 6.1
2018-May-23 05:00N 38°36' W 009°23'2 3.7
2018-May-23 04:30N 38°35' W 009°25'2 3.9
2018-May-23 04:00N 38°33' W 009°26'3 6.3
2018-May-23 03:30N 38°30' W 009°27'2 4.8
2018-May-23 03:00N 38°28' W 009°28'2 3.1
2018-May-23 02:30N 38°27' W 009°29'2 3.3
2018-May-23 02:00N 38°25' W 009°30'2 3.2
2018-May-23 01:30N 38°23' W 009°31'2 3.4
2018-May-23 01:00N 38°22' W 009°31'3 6.0
2018-May-23 00:30N 38°19' W 009°33'3 6.3
2018-May-22 23:59N 38°16' W 009°35'3 6.5
2018-May-22 23:30N 38°13' W 009°36'3 6.7
2018-May-22 23:00N 38°10' W 009°38'3 6.8
2018-May-22 22:29N 38°07' W 009°40'4 6.7
2018-May-22 21:56N 38°04' W 009°41'3 6.8
2018-May-22 21:28N 38°01' W 009°43'14 4.3
2018-May-22 18:09N 37°48' W 009°51'1 8.5
2018-May-22 17:59N 37°46' W 009°51'231 5.3
2018-May-20 22:38N 35°58' W 005°37'1 7.9
2018-May-20 22:30N 35°58' W 005°35'4 7.8
2018-May-20 22:00N 35°59' W 005°31'4 7.5
2018-May-20 21:30N 36°00' W 005°26'4 7.9
2018-May-20 21:00N 36°01' W 005°22'5 9.5
2018-May-20 20:30N 36°04' W 005°17'1610.8
2018-May-20 19:02N 36°13' W 005°01'236 5.5
2018-May-19 00:03N 37°32' W 000°22'110.6
2018-May-18 23:56N 37°33' W 000°21'510.6
2018-May-18 23:25N 37°37' W 000°16'410.6
2018-May-18 23:00N 37°39' W 000°12'98 5.6
2018-May-18 05:27N 38°44' E 001°22'10 1.3
2018-May-17 22:00N 38°50' E 001°32'3 5.7
2018-May-17 21:29N 38°52' E 001°30'3 5.5
2018-May-17 20:59N 38°54' E 001°27'1 1.3
2018-May-17 20:29N 38°54' E 001°27'0 0.0
2018-May-17 19:59N 38°54' E 001°27'0 0.0
2018-May-17 19:26N 38°54' E 001°27'0 0.0
2018-May-17 18:59N 38°54' E 001°27'0 0.0
2018-May-17 18:29N 38°54' E 001°27'0 0.0
2018-May-17 15:26N 38°54' E 001°27'1 0.3
2018-May-17 10:53N 38°54' E 001°28'3 7.6
2018-May-17 10:30N 38°54' E 001°32'4 7.5
2018-May-17 10:00N 38°54' E 001°37'3 5.6
2018-May-17 09:30N 38°56' E 001°40'1 1.7
2018-May-17 09:00N 38°56' E 001°40'1 1.7
2018-May-17 08:30N 38°57' E 001°41'1 1.9
2018-May-17 08:00N 38°58' E 001°41'1 2.1
2018-May-17 07:29N 38°59' E 001°42'1 2.2
2018-May-17 07:00N 38°60' E 001°43'1 1.8
2018-May-17 06:28N 39°01' E 001°44'1 2.3
2018-May-17 06:00N 39°01' E 001°45'3 5.6
2018-May-17 05:29N 39°03' E 001°48'3 4.9
2018-May-17 04:50N 39°04' E 001°51'28 6.2
2018-May-17 00:16N 39°19' E 002°23'3 7.3
2018-May-16 23:52N 39°20' E 002°26'3 7.9
2018-May-16 23:29N 39°22' E 002°29'4 8.0
2018-May-16 23:00N 39°25' E 002°33'4 7.9
2018-May-16 22:30N 39°28' E 002°35'4 8.1
2018-May-16 22:00N 39°31' E 002°38'2 3.4
2018-May-16 21:29N 39°33' E 002°38'0 0.0
2018-May-16 20:59N 39°33' E 002°38'0 0.0
2018-May-16 20:29N 39°33' E 002°38'0 0.0
2018-May-16 19:53N 39°33' E 002°38'0 0.0
2018-May-16 19:29N 39°33' E 002°38'0 0.0
2018-May-16 18:59N 39°33' E 002°38'0 0.0
2018-May-16 18:29N 39°33' E 002°38'0 0.0
2018-May-16 17:59N 39°33' E 002°38'0 0.0
2018-May-16 17:29N 39°33' E 002°38'0 0.0
2018-May-16 16:59N 39°33' E 002°38'0 0.0
2018-May-16 16:29N 39°33' E 002°38'0 0.0
2018-May-16 15:59N 39°33' E 002°38'0 0.0
2018-May-16 15:29N 39°33' E 002°38'0 0.0
2018-May-16 14:59N 39°33' E 002°38'0 0.0
2018-May-16 14:29N 39°33' E 002°38'0 0.0
2018-May-16 13:59N 39°33' E 002°38'0 0.0
2018-May-16 13:29N 39°33' E 002°38'0 0.0
2018-May-16 12:59N 39°33' E 002°38'0 0.0
2018-May-16 12:29N 39°33' E 002°38'0 0.0
2018-May-16 11:59N 39°33' E 002°38'0 0.0
2018-May-16 11:29N 39°33' E 002°38'0 0.8
2018-May-16 10:59N 39°33' E 002°38'2 3.1
2018-May-16 10:30N 39°32' E 002°38'3 6.2
2018-May-16 10:00N 39°29' E 002°36'3 6.7
2018-May-16 09:30N 39°27' E 002°33'1 1.7
2018-May-16 09:01N 39°27' E 002°34'0 0.4
2018-May-16 08:30N 39°28' E 002°34'0 0.8
2018-May-16 08:00N 39°27' E 002°34'1 1.2
2018-May-16 07:30N 39°27' E 002°35'1 1.4
2018-May-16 07:00N 39°26' E 002°35'1 2.1
2018-May-16 06:30N 39°25' E 002°36'2 4.9
2018-May-16 06:00N 39°23' E 002°37'4 9.0
2018-May-16 05:31N 39°20' E 002°41'3 6.3
2018-May-16 05:01N 39°19' E 002°45'4 6.6
2018-May-16 04:27N 39°18' E 002°49'3 6.9
2018-May-16 04:00N 39°16' E 002°53'3 7.0
2018-May-16 03:30N 39°15' E 002°57'4 6.9
2018-May-16 02:58N 39°14' E 003°02'3 6.4
2018-May-16 02:30N 39°14' E 003°05'10 7.2
2018-May-16 01:05N 39°19' E 003°17'1 7.2
2018-May-16 00:53N 39°20' E 003°18'3 7.3
2018-May-16 00:27N 39°22' E 003°22'  
Track history (hours):
 
Tides and Currents Weather Stations Pressure Air Temp Water Temp Dewpoint Dewpoint Depression Visibility Wind Speed Wind Dir Waves Ship Positions

Sea Cloud II

Ship's website: http://www.seacloud.com/en/the-ships/sea-cloud-ii.html

Last reported at 2018-May-23 09:38 UTC. Time now 2018-May-23 10:51 UTC.
Position N 38°43' W 009°07'.

Length 117 m; draft 6 m.

Type: Passenger vessel. MMSI: 248953000.

Date/timePositionNaut miles runAvg speedWind from/ knotsBaromVisibWave heightAir tempDewpointWater temp
2018-May-23 09:38N 38°43' W 009°07'0 0.0
2018-May-23 06:54N 38°43' W 009°07'2 3.8
2018-May-23 06:30N 38°42' W 009°09'5 9.8
2018-May-23 06:00N 38°41' W 009°15'510.3
2018-May-23 05:30N 38°39' W 009°21'3 6.1
2018-May-23 05:00N 38°36' W 009°23'2 3.7
2018-May-23 04:30N 38°35' W 009°25'2 3.9
2018-May-23 04:00N 38°33' W 009°26'3 6.3
2018-May-23 03:30N 38°30' W 009°27'2 4.8
2018-May-23 03:00N 38°28' W 009°28'2 3.1
2018-May-23 02:30N 38°27' W 009°29'2 3.3
2018-May-23 02:00N 38°25' W 009°30'2 3.2
2018-May-23 01:30N 38°23' W 009°31'2 3.4
2018-May-23 01:00N 38°22' W 009°31'3 6.0
2018-May-23 00:30N 38°19' W 009°33'3 6.3
2018-May-22 23:59N 38°16' W 009°35'3 6.5
2018-May-22 23:30N 38°13' W 009°36'3 6.7
2018-May-22 23:00N 38°10' W 009°38'3 6.8
2018-May-22 22:29N 38°07' W 009°40'4 6.7
2018-May-22 21:56N 38°04' W 009°41'3 6.8
2018-May-22 21:28N 38°01' W 009°43'14 4.3
2018-May-22 18:09N 37°48' W 009°51'1 8.5
2018-May-22 17:59N 37°46' W 009°51'231 5.3
2018-May-20 22:38N 35°58' W 005°37'1 7.9
2018-May-20 22:30N 35°58' W 005°35'4 7.8
2018-May-20 22:00N 35°59' W 005°31'4 7.5
2018-May-20 21:30N 36°00' W 005°26'4 7.9
2018-May-20 21:00N 36°01' W 005°22'5 9.5
2018-May-20 20:30N 36°04' W 005°17'1610.8
2018-May-20 19:02N 36°13' W 005°01'236 5.5
2018-May-19 00:03N 37°32' W 000°22'110.6
2018-May-18 23:56N 37°33' W 000°21'510.6
2018-May-18 23:25N 37°37' W 000°16'410.6
2018-May-18 23:00N 37°39' W 000°12'98 5.6
2018-May-18 05:27N 38°44' E 001°22'10 1.3
2018-May-17 22:00N 38°50' E 001°32'3 5.7
2018-May-17 21:29N 38°52' E 001°30'3 5.5
2018-May-17 20:59N 38°54' E 001°27'1 1.3
2018-May-17 20:29N 38°54' E 001°27'0 0.0
2018-May-17 19:59N 38°54' E 001°27'0 0.0
2018-May-17 19:26N 38°54' E 001°27'0 0.0
2018-May-17 18:59N 38°54' E 001°27'0 0.0
2018-May-17 18:29N 38°54' E 001°27'0 0.0
2018-May-17 15:26N 38°54' E 001°27'1 0.3
2018-May-17 10:53N 38°54' E 001°28'3 7.6
2018-May-17 10:30N 38°54' E 001°32'4 7.5
2018-May-17 10:00N 38°54' E 001°37'3 5.6
2018-May-17 09:30N 38°56' E 001°40'1 1.7
2018-May-17 09:00N 38°56' E 001°40'1 1.7
2018-May-17 08:30N 38°57' E 001°41'1 1.9
2018-May-17 08:00N 38°58' E 001°41'1 2.1
2018-May-17 07:29N 38°59' E 001°42'1 2.2
2018-May-17 07:00N 38°60' E 001°43'1 1.8
2018-May-17 06:28N 39°01' E 001°44'1 2.3
2018-May-17 06:00N 39°01' E 001°45'3 5.6
2018-May-17 05:29N 39°03' E 001°48'3 4.9
2018-May-17 04:50N 39°04' E 001°51'28 6.2
2018-May-17 00:16N 39°19' E 002°23'3 7.3
2018-May-16 23:52N 39°20' E 002°26'3 7.9
2018-May-16 23:29N 39°22' E 002°29'4 8.0
2018-May-16 23:00N 39°25' E 002°33'4 7.9
2018-May-16 22:30N 39°28' E 002°35'4 8.1
2018-May-16 22:00N 39°31' E 002°38'2 3.4
2018-May-16 21:29N 39°33' E 002°38'0 0.0
2018-May-16 20:59N 39°33' E 002°38'0 0.0
2018-May-16 20:29N 39°33' E 002°38'0 0.0
2018-May-16 19:53N 39°33' E 002°38'0 0.0
2018-May-16 19:29N 39°33' E 002°38'0 0.0
2018-May-16 18:59N 39°33' E 002°38'0 0.0
2018-May-16 18:29N 39°33' E 002°38'0 0.0
2018-May-16 17:59N 39°33' E 002°38'0 0.0
2018-May-16 17:29N 39°33' E 002°38'0 0.0
2018-May-16 16:59N 39°33' E 002°38'0 0.0
2018-May-16 16:29N 39°33' E 002°38'0 0.0
2018-May-16 15:59N 39°33' E 002°38'0 0.0
2018-May-16 15:29N 39°33' E 002°38'0 0.0
2018-May-16 14:59N 39°33' E 002°38'0 0.0
2018-May-16 14:29N 39°33' E 002°38'0 0.0
2018-May-16 13:59N 39°33' E 002°38'0 0.0
2018-May-16 13:29N 39°33' E 002°38'0 0.0
2018-May-16 12:59N 39°33' E 002°38'0 0.0
2018-May-16 12:29N 39°33' E 002°38'0 0.0
2018-May-16 11:59N 39°33' E 002°38'0 0.0
2018-May-16 11:29N 39°33' E 002°38'0 0.8
2018-May-16 10:59N 39°33' E 002°38'2 3.1
2018-May-16 10:30N 39°32' E 002°38'3 6.2
2018-May-16 10:00N 39°29' E 002°36'3 6.7
2018-May-16 09:30N 39°27' E 002°33'1 1.7
2018-May-16 09:01N 39°27' E 002°34'0 0.4
2018-May-16 08:30N 39°28' E 002°34'0 0.8
2018-May-16 08:00N 39°27' E 002°34'1 1.2
2018-May-16 07:30N 39°27' E 002°35'1 1.4
2018-May-16 07:00N 39°26' E 002°35'1 2.1
2018-May-16 06:30N 39°25' E 002°36'2 4.9
2018-May-16 06:00N 39°23' E 002°37'4 9.0
2018-May-16 05:31N 39°20' E 002°41'3 6.3
2018-May-16 05:01N 39°19' E 002°45'4 6.6
2018-May-16 04:27N 39°18' E 002°49'3 6.9
2018-May-16 04:00N 39°16' E 002°53'3 7.0
2018-May-16 03:30N 39°15' E 002°57'4 6.9
2018-May-16 02:58N 39°14' E 003°02'3 6.4
2018-May-16 02:30N 39°14' E 003°05'10 7.2
2018-May-16 01:05N 39°19' E 003°17'1 7.2
2018-May-16 00:53N 39°20' E 003°18'3 7.3
2018-May-16 00:27N 39°22' E 003°22'  

Dump ship's entire track history